createdAt,value
2023-04-16T00:02:21.368Z,61.07
2023-04-16T00:04:48.946Z,60.78
2023-04-16T00:07:16.463Z,60.35
2023-04-16T00:09:43.808Z,60.16
2023-04-16T00:12:11.192Z,57.95
2023-04-16T00:14:38.696Z,58.64
2023-04-16T00:17:06.687Z,59.67
2023-04-16T00:19:33.966Z,60.50
2023-04-16T00:22:01.164Z,63.20
2023-04-16T00:24:28.555Z,66.48
2023-04-16T00:26:56.429Z,66.70
2023-04-16T00:29:24.011Z,65.91
2023-04-16T00:31:51.840Z,65.00
2023-04-16T00:34:19.049Z,64.16
2023-04-16T00:36:46.624Z,63.45
2023-04-16T00:39:14.337Z,62.73
2023-04-16T00:41:41.726Z,62.23
2023-04-16T00:44:08.863Z,62.19
2023-04-16T00:46:38.080Z,62.08
2023-04-16T00:49:05.609Z,61.74
2023-04-16T00:51:33.470Z,61.19
2023-04-16T00:54:02.512Z,60.81
2023-04-16T00:56:29.832Z,60.56
2023-04-16T00:58:57.337Z,60.21
2023-04-16T01:04:14.508Z,59.33
2023-04-16T01:06:41.726Z,61.48
2023-04-16T01:09:11.946Z,65.17
2023-04-16T01:11:40.762Z,66.33
2023-04-16T01:14:07.929Z,66.44
2023-04-16T01:16:35.926Z,65.41
2023-04-16T01:19:04.319Z,65.25
2023-04-16T01:21:31.938Z,64.55
2023-04-16T01:24:03.963Z,65.16
2023-04-16T01:26:31.861Z,64.99
2023-04-16T01:29:00.791Z,64.48
2023-04-16T01:31:28.160Z,63.77
2023-04-16T01:33:56.242Z,63.24
2023-04-16T01:36:23.423Z,62.76
2023-04-16T01:38:50.776Z,62.48
2023-04-16T01:41:19.026Z,62.02
2023-04-16T01:43:46.369Z,61.64
2023-04-16T01:46:24.449Z,61.18
2023-04-16T01:48:55.198Z,61.10
2023-04-16T01:51:22.834Z,61.46
2023-04-16T01:53:51.834Z,61.63
2023-04-16T01:56:19.074Z,61.33
2023-04-16T01:58:49.401Z,60.29
2023-04-16T02:01:17.545Z,60.85
2023-04-16T02:03:45.355Z,60.69
2023-04-16T02:06:13.743Z,60.38
2023-04-16T02:08:41.969Z,60.98
2023-04-16T02:11:09.429Z,61.29
2023-04-16T02:13:37.264Z,61.27
2023-04-16T02:16:04.937Z,62.25
2023-04-16T02:18:32.068Z,61.97
2023-04-16T02:21:02.747Z,61.96
2023-04-16T02:23:30.065Z,62.62
2023-04-16T02:25:57.965Z,63.37
2023-04-16T02:28:25.309Z,63.12
2023-04-16T02:30:52.725Z,63.95
2023-04-16T02:33:20.680Z,64.16
2023-04-16T02:35:49.233Z,64.31
2023-04-16T02:38:16.374Z,64.05
2023-04-16T02:40:44.325Z,63.77
2023-04-16T02:43:11.527Z,63.57
2023-04-16T02:45:39.322Z,63.10
2023-04-16T02:48:09.142Z,62.66
2023-04-16T02:50:36.849Z,62.33
2023-04-16T02:53:05.071Z,62.16
2023-04-16T02:55:32.316Z,61.99
2023-04-16T02:57:59.776Z,61.65
2023-04-16T03:00:27.458Z,61.21
2023-04-16T03:02:54.865Z,61.10
2023-04-16T03:05:23.100Z,60.96
2023-04-16T03:07:51.729Z,60.81
2023-04-16T03:10:19.150Z,60.90
2023-04-16T03:12:46.824Z,60.90
2023-04-16T03:15:14.322Z,60.93
2023-04-16T03:17:41.548Z,60.24
2023-04-16T03:20:10.621Z,60.91
2023-04-16T03:22:39.407Z,61.27
2023-04-16T03:25:08.306Z,61.01
2023-04-16T03:27:36.332Z,61.93
2023-04-16T03:30:04.153Z,60.88
2023-04-16T03:32:31.600Z,61.95
2023-04-16T03:34:58.908Z,62.25
2023-04-16T03:37:26.210Z,62.27
2023-04-16T03:39:53.531Z,61.65
2023-04-16T03:42:21.199Z,60.95
2023-04-16T03:44:48.865Z,61.38
2023-04-16T03:47:16.292Z,62.59
2023-04-16T03:49:43.935Z,62.81
2023-04-16T03:52:12.118Z,62.27
2023-04-16T03:54:39.481Z,63.51
2023-04-16T03:57:07.082Z,62.59
2023-04-16T03:59:34.450Z,63.63
2023-04-16T04:02:02.083Z,64.09
2023-04-16T04:04:29.952Z,63.92
2023-04-16T04:06:57.466Z,62.56
2023-04-16T04:09:24.654Z,61.62
2023-04-16T04:11:52.355Z,62.70
2023-04-16T04:14:19.848Z,63.48
2023-04-16T04:16:47.228Z,63.93
2023-04-16T04:19:14.390Z,63.80
2023-04-16T04:21:42.123Z,62.17
2023-04-16T04:24:09.796Z,62.29
2023-04-16T04:26:36.991Z,63.50
2023-04-16T04:29:04.336Z,63.95
2023-04-16T04:31:31.658Z,64.28
2023-04-16T04:33:58.855Z,63.70
2023-04-16T04:36:28.216Z,63.81
2023-04-16T04:38:55.346Z,64.13
2023-04-16T04:41:22.814Z,62.63
2023-04-16T04:43:51.302Z,62.35
2023-04-16T04:46:18.772Z,62.71
2023-04-16T04:48:46.486Z,62.11
2023-04-16T04:51:14.358Z,62.34
2023-04-16T04:53:41.476Z,63.88
2023-04-16T04:56:12.236Z,63.41
2023-04-16T04:58:41.768Z,62.63
2023-04-16T05:01:09.105Z,62.84
2023-04-16T05:03:36.657Z,63.68
2023-04-16T05:06:04.175Z,64.87
2023-04-16T05:08:31.282Z,65.02
2023-04-16T05:10:58.477Z,65.02
2023-04-16T05:13:26.551Z,64.48
2023-04-16T05:15:53.697Z,64.21
2023-04-16T05:18:21.030Z,64.43
2023-04-16T05:20:49.012Z,63.96
2023-04-16T05:23:16.161Z,63.31
2023-04-16T05:25:43.456Z,64.38
2023-04-16T05:28:11.117Z,64.67
2023-04-16T05:30:38.443Z,64.51
2023-04-16T05:33:05.661Z,64.32
2023-04-16T05:35:33.212Z,63.71
2023-04-16T05:38:00.477Z,63.37
2023-04-16T05:40:27.687Z,63.44
2023-04-16T05:42:55.280Z,63.55
2023-04-16T05:45:22.536Z,63.42
2023-04-16T05:47:49.817Z,63.08
2023-04-16T05:50:17.284Z,62.99
2023-04-16T05:52:44.489Z,62.53
2023-04-16T05:55:11.747Z,62.44
2023-04-16T05:57:39.459Z,62.83
2023-04-16T06:00:08.379Z,63.14
2023-04-16T06:02:35.954Z,63.26
2023-04-16T06:05:04.041Z,62.47
2023-04-16T06:07:31.302Z,62.46
2023-04-16T06:09:58.465Z,63.34
2023-04-16T06:12:25.969Z,62.99
2023-04-16T06:14:53.529Z,62.89
2023-04-16T06:17:20.739Z,61.84
2023-04-16T06:19:48.308Z,61.76
2023-04-16T06:22:15.827Z,62.14
2023-04-16T06:24:43.071Z,63.54
2023-04-16T06:27:11.178Z,63.91
2023-04-16T06:29:41.705Z,63.30
2023-04-16T06:32:09.411Z,63.22
2023-04-16T06:34:38.259Z,62.48
2023-04-16T06:37:06.421Z,61.88
2023-04-16T06:39:34.967Z,61.70
2023-04-16T06:42:02.985Z,62.62
2023-04-16T06:44:30.255Z,62.86
2023-04-16T06:46:57.490Z,63.10
2023-04-16T06:49:26.070Z,62.40
2023-04-16T06:51:53.345Z,61.60
2023-04-16T06:54:20.696Z,62.12
2023-04-16T06:56:48.065Z,61.76
2023-04-16T06:59:15.238Z,63.32
2023-04-16T07:01:42.541Z,63.81
2023-04-16T07:04:10.685Z,63.54
2023-04-16T07:06:37.931Z,63.12
2023-04-16T07:09:05.122Z,62.61
2023-04-16T07:11:32.512Z,62.03
2023-04-16T07:13:59.681Z,62.35
2023-04-16T07:16:27.066Z,61.94
2023-04-16T07:18:56.163Z,61.35
2023-04-16T07:21:23.398Z,61.33
2023-04-16T07:23:50.844Z,61.01
2023-04-16T07:26:18.487Z,61.45
2023-04-16T07:28:45.855Z,61.44
2023-04-16T07:31:13.188Z,61.52
2023-04-16T07:33:41.005Z,60.87
2023-04-16T07:36:08.420Z,61.41
2023-04-16T07:38:35.965Z,60.90
2023-04-16T07:41:03.621Z,60.56
2023-04-16T07:43:30.869Z,60.83
2023-04-16T07:45:58.177Z,60.91
2023-04-16T07:48:26.202Z,60.84
2023-04-16T07:50:53.418Z,60.58
2023-04-16T07:53:20.874Z,60.10
2023-04-16T07:55:48.568Z,60.42
2023-04-16T07:58:15.879Z,61.05
2023-04-16T08:00:43.558Z,60.60
2023-04-16T08:03:11.489Z,59.90
2023-04-16T08:05:38.800Z,59.60
2023-04-16T08:08:06.164Z,59.61
2023-04-16T08:10:34.265Z,58.70
2023-04-16T08:13:02.247Z,58.87
2023-04-16T08:15:29.707Z,60.37
2023-04-16T08:17:57.995Z,63.31
2023-04-16T08:20:27.430Z,64.57
2023-04-16T08:22:55.443Z,64.27
2023-04-16T08:25:25.428Z,63.33
2023-04-16T08:27:52.591Z,62.83
2023-04-16T08:30:20.082Z,62.29
2023-04-16T08:32:50.013Z,61.52
2023-04-16T08:35:17.614Z,61.15
2023-04-16T08:37:44.908Z,60.93
2023-04-16T08:40:13.006Z,61.41
2023-04-16T08:42:46.042Z,61.77
2023-04-16T08:45:19.657Z,63.16
2023-04-16T08:47:49.497Z,63.68
2023-04-16T08:50:18.800Z,62.80
2023-04-16T08:52:54.310Z,62.03
2023-04-16T08:55:36.802Z,61.34
2023-04-16T08:58:19.589Z,61.05
2023-04-16T09:00:48.504Z,60.90
2023-04-16T09:03:16.301Z,60.26
2023-04-16T09:05:45.182Z,60.37
2023-04-16T09:08:12.887Z,58.45
2023-04-16T09:10:40.235Z,57.93
2023-04-16T09:13:10.128Z,58.40
2023-04-16T09:15:37.699Z,60.65
2023-04-16T09:18:04.995Z,62.68
2023-04-16T09:20:32.534Z,62.07
2023-04-16T09:23:00.172Z,60.24
2023-04-16T09:25:27.591Z,57.02
2023-04-16T09:27:55.168Z,59.19
2023-04-16T09:30:24.716Z,58.34
2023-04-16T09:32:53.313Z,59.15
2023-04-16T09:35:21.299Z,60.09
2023-04-16T09:37:58.777Z,62.25
2023-04-16T09:40:28.286Z,63.13
2023-04-16T09:42:59.446Z,62.05
2023-04-16T09:45:26.703Z,60.71
2023-04-16T09:48:06.160Z,57.85
2023-04-16T09:50:33.415Z,56.77
2023-04-16T09:53:04.086Z,58.28
2023-04-16T09:55:31.417Z,59.11
2023-04-16T09:58:02.939Z,59.95
2023-04-16T10:00:31.931Z,62.55
2023-04-16T10:03:07.350Z,63.54
2023-04-16T10:05:35.259Z,62.15
2023-04-16T10:08:02.944Z,61.01
2023-04-16T10:10:31.209Z,59.98
2023-04-16T10:12:59.252Z,58.75
2023-04-16T10:15:27.465Z,58.88
2023-04-16T10:17:56.149Z,59.18
2023-04-16T10:20:24.707Z,59.00
2023-04-16T10:22:53.546Z,61.70
2023-04-16T10:25:22.089Z,61.96
2023-04-16T10:27:50.252Z,60.23
2023-04-16T10:30:19.958Z,56.91
2023-04-16T10:32:48.005Z,57.18
2023-04-16T10:35:22.236Z,57.35
2023-04-16T10:37:49.531Z,59.40
2023-04-16T10:40:25.634Z,59.37
2023-04-16T10:43:02.276Z,59.03
2023-04-16T10:45:37.951Z,58.26
2023-04-16T10:48:10.372Z,57.84
2023-04-16T10:50:38.289Z,58.16
2023-04-16T10:53:21.339Z,58.35
2023-04-16T10:56:05.060Z,59.82
2023-04-16T10:58:35.888Z,59.27
2023-04-16T11:01:11.965Z,59.04
2023-04-16T11:03:42.801Z,56.61
2023-04-16T11:06:18.202Z,57.30
2023-04-16T11:08:54.576Z,57.87
2023-04-16T11:11:23.590Z,57.26
2023-04-16T11:13:56.279Z,57.11
2023-04-16T11:16:25.788Z,56.75
2023-04-16T11:18:55.606Z,55.86
2023-04-16T11:21:25.045Z,56.39
2023-04-16T11:23:53.897Z,56.86
2023-04-16T11:26:31.660Z,56.59
2023-04-16T11:29:00.634Z,56.71
2023-04-16T11:31:28.099Z,56.34
2023-04-16T11:33:57.789Z,55.98
2023-04-16T11:36:27.405Z,56.94
2023-04-16T11:39:03.343Z,56.68
2023-04-16T11:41:30.775Z,56.03
2023-04-16T11:43:58.633Z,56.13
2023-04-16T11:46:39.876Z,56.62
2023-04-16T11:49:07.918Z,57.09
2023-04-16T11:51:43.903Z,56.57
2023-04-16T11:54:20.485Z,56.59
2023-04-16T11:56:50.088Z,57.26
2023-04-16T11:59:18.596Z,56.89
2023-04-16T12:01:56.755Z,56.93
2023-04-16T12:04:27.978Z,56.55
2023-04-16T12:07:10.398Z,56.22
2023-04-16T12:09:43.466Z,56.90
2023-04-16T12:12:28.502Z,56.83
2023-04-16T12:14:57.272Z,57.48
2023-04-16T12:17:25.045Z,57.87
2023-04-16T12:19:56.126Z,58.08
2023-04-16T12:22:37.741Z,57.50
2023-04-16T12:25:11.828Z,57.45
2023-04-16T12:27:58.626Z,57.30
2023-04-16T12:30:28.018Z,57.00
2023-04-16T12:33:15.879Z,56.65
2023-04-16T12:35:44.810Z,56.32
2023-04-16T12:38:12.903Z,56.87
2023-04-16T12:41:33.847Z,56.28
2023-04-16T12:44:17.013Z,56.08
2023-04-16T12:46:45.969Z,56.25
2023-04-16T12:49:13.846Z,56.13
2023-04-16T12:51:41.550Z,55.91
2023-04-16T12:54:10.001Z,56.43
2023-04-16T12:56:37.475Z,56.20
2023-04-16T12:59:05.420Z,55.75
2023-04-16T13:01:33.098Z,55.99
2023-04-16T13:04:00.972Z,55.95
2023-04-16T13:06:28.970Z,55.64
2023-04-16T13:08:57.450Z,55.42
2023-04-16T13:11:24.978Z,54.86
2023-04-16T13:13:52.835Z,55.30
2023-04-16T13:16:20.708Z,55.27
2023-04-16T13:18:48.068Z,55.13
2023-04-16T13:21:16.152Z,54.98
2023-04-16T13:23:44.279Z,54.74
2023-04-16T13:26:13.523Z,55.10
2023-04-16T13:28:41.431Z,54.68
2023-04-16T13:31:09.689Z,55.16
2023-04-16T13:33:37.077Z,55.22
2023-04-16T13:36:04.349Z,55.54
2023-04-16T13:38:32.304Z,55.63
2023-04-16T13:40:59.693Z,55.14
2023-04-16T13:43:27.479Z,54.57
2023-04-16T13:45:56.390Z,54.30
2023-04-16T13:48:23.747Z,54.11
2023-04-16T13:50:51.292Z,53.63
2023-04-16T13:53:19.404Z,53.43
2023-04-16T13:55:47.373Z,53.52
2023-04-16T13:58:14.922Z,53.17
2023-04-16T14:00:47.671Z,53.16
2023-04-16T14:03:15.336Z,53.41
2023-04-16T14:05:43.915Z,52.96
2023-04-16T14:08:13.686Z,53.22
2023-04-16T14:10:41.513Z,53.65
2023-04-16T14:13:08.762Z,53.42
2023-04-16T14:15:37.187Z,53.52
2023-04-16T14:18:04.802Z,53.23
2023-04-16T14:20:32.427Z,52.71
2023-04-16T14:23:00.485Z,52.15
2023-04-16T14:25:28.844Z,52.35
2023-04-16T14:27:56.518Z,52.12
2023-04-16T14:30:24.289Z,52.04
2023-04-16T14:32:52.837Z,51.71
2023-04-16T14:35:21.903Z,51.75
2023-04-16T14:37:49.907Z,51.77
2023-04-16T14:40:18.322Z,51.56
2023-04-16T14:42:47.589Z,51.55
2023-04-16T14:45:15.556Z,51.52
2023-04-16T14:47:48.151Z,51.51
2023-04-16T14:50:17.400Z,50.79
2023-04-16T14:52:45.130Z,50.87
2023-04-16T14:55:12.570Z,50.58
2023-04-16T14:57:39.888Z,50.94
2023-04-16T15:00:10.262Z,51.03
2023-04-16T15:02:38.273Z,51.13
2023-04-16T15:05:09.313Z,51.33
2023-04-16T15:07:37.967Z,51.56
2023-04-16T15:10:06.343Z,51.87
2023-04-16T15:12:35.939Z,52.06
2023-04-16T15:15:03.596Z,52.17
2023-04-16T15:17:30.914Z,52.05
2023-04-16T15:19:58.906Z,52.02
2023-04-16T15:22:27.341Z,52.48
2023-04-16T15:24:54.626Z,52.36
2023-04-16T15:27:23.028Z,52.26
2023-04-16T15:29:50.530Z,52.54
2023-04-16T15:32:17.920Z,52.69
2023-04-16T15:34:47.652Z,52.71
2023-04-16T15:37:17.222Z,52.50
2023-04-16T15:39:45.563Z,52.71
2023-04-16T15:42:14.761Z,52.21
2023-04-16T15:44:43.021Z,52.20
2023-04-16T15:47:12.769Z,52.78
2023-04-16T15:49:45.059Z,52.51
2023-04-16T15:52:13.145Z,52.50
2023-04-16T15:54:41.642Z,52.40
2023-04-16T15:57:10.434Z,52.86
2023-04-16T15:59:38.599Z,52.84
2023-04-16T16:02:07.488Z,52.77
2023-04-16T16:04:35.145Z,53.10
2023-04-16T16:07:04.328Z,52.86
2023-04-16T16:09:32.101Z,52.90
2023-04-16T16:12:02.294Z,52.64
2023-04-16T16:14:29.842Z,52.74
2023-04-16T16:17:00.365Z,52.64
2023-04-16T16:19:30.142Z,52.76
2023-04-16T16:22:02.200Z,53.00
2023-04-16T16:24:30.599Z,53.17
2023-04-16T16:26:58.534Z,53.27
2023-04-16T16:29:27.010Z,53.40
2023-04-16T16:31:54.679Z,53.61
2023-04-16T16:34:22.621Z,54.00
2023-04-16T16:36:51.591Z,54.04
2023-04-16T16:39:23.251Z,54.08
2023-04-16T16:41:54.397Z,54.20
2023-04-16T16:44:23.190Z,54.42
2023-04-16T16:46:52.256Z,54.56
2023-04-16T16:49:19.550Z,54.61
2023-04-16T16:51:48.609Z,54.75
2023-04-16T16:54:17.301Z,55.14
2023-04-16T16:56:47.436Z,55.36
2023-04-16T16:59:15.711Z,55.77
2023-04-16T17:01:43.450Z,55.84
2023-04-16T17:04:11.518Z,56.05
2023-04-16T17:06:40.493Z,56.32
2023-04-16T17:09:09.502Z,56.49
2023-04-16T17:11:38.114Z,56.86
2023-04-16T17:14:06.376Z,57.19
2023-04-16T17:16:35.072Z,57.56
2023-04-16T17:19:06.022Z,58.00
2023-04-16T17:21:35.083Z,58.38
2023-04-16T17:24:03.243Z,58.66
2023-04-16T17:26:32.545Z,58.86
2023-04-16T17:29:00.711Z,59.18
2023-04-16T17:31:30.057Z,59.65
2023-04-16T17:33:58.914Z,59.95
2023-04-16T17:36:28.110Z,60.22
2023-04-16T17:38:56.110Z,60.53
2023-04-16T17:41:23.694Z,60.83
2023-04-16T17:43:52.179Z,61.19
2023-04-16T17:46:20.397Z,61.41
2023-04-16T17:48:49.894Z,61.77
2023-04-16T17:51:18.126Z,61.89
2023-04-16T17:53:48.199Z,62.16
2023-04-16T17:56:16.314Z,63.96
2023-04-16T17:58:44.329Z,65.34
2023-04-16T18:01:13.044Z,63.93
2023-04-16T18:03:41.792Z,62.22
2023-04-16T18:06:10.284Z,59.25
2023-04-16T18:08:39.302Z,58.09
2023-04-16T18:11:09.158Z,58.75
2023-04-16T18:13:37.804Z,59.36
2023-04-16T18:16:06.738Z,59.94
2023-04-16T18:18:35.045Z,60.44
2023-04-16T18:21:03.288Z,60.93
2023-04-16T18:23:30.819Z,61.39
2023-04-16T18:26:01.165Z,61.67
2023-04-16T18:28:29.708Z,62.03
2023-04-16T18:30:59.122Z,64.13
2023-04-16T18:33:50.110Z,65.56
2023-04-16T18:36:17.685Z,64.06
2023-04-16T18:38:59.400Z,62.28
2023-04-16T18:41:31.314Z,61.08
2023-04-16T18:43:59.144Z,58.86
2023-04-16T18:46:29.297Z,57.92
2023-04-16T18:49:00.952Z,58.28
2023-04-16T18:51:28.947Z,59.32
2023-04-16T18:54:02.260Z,59.90
2023-04-16T18:56:32.524Z,60.70
2023-04-16T18:59:00.852Z,61.33
2023-04-16T19:01:29.746Z,61.85
2023-04-16T19:03:58.760Z,64.07
2023-04-16T19:06:29.016Z,65.40
2023-04-16T19:08:57.185Z,63.93
2023-04-16T19:11:28.413Z,62.52
2023-04-16T19:13:56.248Z,61.34
2023-04-16T19:16:24.242Z,59.16
2023-04-16T19:18:53.356Z,58.03
2023-04-16T19:21:22.662Z,59.22
2023-04-16T19:23:49.853Z,60.08
2023-04-16T19:26:18.261Z,61.28
2023-04-16T19:28:47.051Z,61.88
2023-04-16T19:31:15.033Z,64.03
2023-04-16T19:33:44.457Z,65.44
2023-04-16T19:36:12.899Z,64.45
2023-04-16T19:38:40.989Z,62.91
2023-04-16T19:41:09.207Z,61.61
2023-04-16T19:43:38.241Z,60.60
2023-04-16T19:46:09.040Z,58.52
2023-04-16T19:48:37.723Z,58.09
2023-04-16T19:51:06.063Z,59.15
2023-04-16T19:53:36.349Z,59.74
2023-04-16T19:56:08.392Z,60.67
2023-04-16T19:58:35.856Z,61.56
2023-04-16T20:01:10.195Z,64.00
2023-04-16T20:03:38.854Z,65.78
2023-04-16T20:06:08.633Z,64.14
2023-04-16T20:08:39.995Z,62.44
2023-04-16T20:11:08.952Z,61.18
2023-04-16T20:13:39.185Z,60.14
2023-04-16T20:16:10.148Z,58.28
2023-04-16T20:18:42.334Z,57.90
2023-04-16T20:21:13.889Z,58.83
2023-04-16T20:23:42.495Z,59.68
2023-04-16T20:26:10.222Z,60.78
2023-04-16T20:28:37.671Z,61.58
2023-04-16T20:31:05.698Z,64.17
2023-04-16T20:33:33.582Z,65.69
2023-04-16T20:36:01.246Z,64.73
2023-04-16T20:38:33.139Z,63.27
2023-04-16T20:41:11.057Z,61.71
2023-04-16T20:43:41.559Z,60.86
2023-04-16T20:46:09.762Z,60.20
2023-04-16T20:48:39.479Z,58.30
2023-04-16T20:51:10.022Z,57.80
2023-04-16T20:53:37.919Z,58.94
2023-04-16T20:56:07.372Z,59.87
2023-04-16T20:58:34.622Z,60.73
2023-04-16T21:01:02.263Z,61.56
2023-04-16T21:03:29.691Z,63.91
2023-04-16T21:05:57.563Z,65.34
2023-04-16T21:08:24.976Z,64.36
2023-04-16T21:10:52.168Z,62.67
2023-04-16T21:13:21.192Z,61.43
2023-04-16T21:15:48.509Z,60.43
2023-04-16T21:18:17.614Z,58.70
2023-04-16T21:20:45.326Z,58.17
2023-04-16T21:23:12.579Z,59.11
2023-04-16T21:25:40.077Z,60.12
2023-04-16T21:28:07.715Z,60.74
2023-04-16T21:30:35.032Z,61.28
2023-04-16T21:33:02.709Z,63.88
2023-04-16T21:35:33.477Z,65.61
2023-04-16T21:38:00.669Z,64.53
2023-04-16T21:40:27.847Z,63.19
2023-04-16T21:42:55.629Z,62.17
2023-04-16T21:45:22.898Z,61.26
2023-04-16T21:47:50.224Z,60.48
2023-04-16T21:50:18.059Z,58.81
2023-04-16T21:52:46.673Z,58.07
2023-04-16T21:55:15.992Z,58.82
2023-04-16T21:57:43.725Z,59.96
2023-04-16T22:00:14.556Z,60.79
2023-04-16T22:02:43.464Z,61.45
2023-04-16T22:05:11.764Z,63.94
2023-04-16T22:07:39.282Z,65.78
2023-04-16T22:10:09.487Z,64.95
2023-04-16T22:12:40.170Z,63.80
2023-04-16T22:15:08.515Z,62.61
2023-04-16T22:17:36.718Z,61.78
2023-04-16T22:20:09.464Z,60.86
2023-04-16T22:22:36.980Z,60.24
2023-04-16T22:25:04.706Z,58.45
2023-04-16T22:27:32.003Z,57.98
2023-04-16T22:29:59.723Z,58.82
2023-04-16T22:32:27.980Z,59.83
2023-04-16T22:34:55.531Z,60.80
2023-04-16T22:37:22.971Z,61.57
2023-04-16T22:39:50.723Z,63.90
2023-04-16T22:42:17.969Z,65.82
2023-04-16T22:44:45.434Z,65.08
2023-04-16T22:47:12.579Z,63.75
2023-04-16T22:49:39.778Z,62.88
2023-04-16T22:52:07.013Z,62.34
2023-04-16T22:54:34.523Z,61.96
2023-04-16T22:57:02.385Z,61.39
2023-04-16T22:59:30.062Z,60.70
2023-04-16T23:01:57.421Z,60.29
2023-04-16T23:04:24.857Z,58.99
2023-04-16T23:06:52.971Z,58.50
2023-04-16T23:09:21.350Z,59.11
2023-04-16T23:11:48.591Z,60.03
2023-04-16T23:14:16.840Z,60.93
2023-04-16T23:16:45.140Z,61.86
2023-04-16T23:19:15.312Z,64.69
2023-04-16T23:21:42.513Z,66.68
2023-04-16T23:24:10.461Z,66.69
2023-04-16T23:26:37.744Z,65.19
2023-04-16T23:29:05.085Z,64.10
2023-04-16T23:31:33.612Z,63.39
2023-04-16T23:34:00.810Z,62.64
2023-04-16T23:36:28.013Z,63.18
2023-04-16T23:38:55.916Z,62.53
2023-04-16T23:41:24.068Z,61.51
2023-04-16T23:43:51.316Z,60.99
2023-04-16T23:46:19.177Z,60.44
2023-04-16T23:48:46.469Z,60.31
2023-04-16T23:51:13.974Z,58.99
2023-04-16T23:53:42.019Z,60.02
2023-04-16T23:56:11.543Z,61.08
2023-04-16T23:58:38.849Z,61.94
